sensor_id;sensor_type;location;lat;lon;timestamp;temperature;humidity
67820;DHT22;54618;52.018;5.576;2022-09-09T00:00:23;22.10;65.30
67820;DHT22;54618;52.018;5.576;2022-09-09T00:05:48;22.10;65.20
67820;DHT22;54618;52.018;5.576;2022-09-09T00:08:20;22.10;65.20
67820;DHT22;54618;52.018;5.576;2022-09-09T00:10:58;22.10;65.20
67820;DHT22;54618;52.018;5.576;2022-09-09T00:13:45;22.10;65.20
67820;DHT22;54618;52.018;5.576;2022-09-09T00:16:25;22.10;65.20
67820;DHT22;54618;52.018;5.576;2022-09-09T00:19:27;22.10;65.20
67820;DHT22;54618;52.018;5.576;2022-09-09T00:21:58;22.10;65.20
67820;DHT22;54618;52.018;5.576;2022-09-09T00:24:42;22.10;65.20
67820;DHT22;54618;52.018;5.576;2022-09-09T00:27:16;22.10;65.20
67820;DHT22;54618;52.018;5.576;2022-09-09T00:29:53;22.10;65.20
67820;DHT22;54618;52.018;5.576;2022-09-09T00:32:22;22.10;65.20
67820;DHT22;54618;52.018;5.576;2022-09-09T00:34:55;22.10;65.20
67820;DHT22;54618;52.018;5.576;2022-09-09T00:37:22;22.10;65.20
67820;DHT22;54618;52.018;5.576;2022-09-09T00:39:52;22.10;65.20
67820;DHT22;54618;52.018;5.576;2022-09-09T00:42:23;22.10;65.20
67820;DHT22;54618;52.018;5.576;2022-09-09T00:48:04;22.10;65.20
67820;DHT22;54618;52.018;5.576;2022-09-09T00:56:20;22.10;65.20
67820;DHT22;54618;52.018;5.576;2022-09-09T01:01:35;22.10;65.10
67820;DHT22;54618;52.018;5.576;2022-09-09T01:04:06;22.10;65.10
67820;DHT22;54618;52.018;5.576;2022-09-09T01:06:35;22.10;65.20
67820;DHT22;54618;52.018;5.576;2022-09-09T01:14:55;22.10;65.10
67820;DHT22;54618;52.018;5.576;2022-09-09T01:17:26;22.10;65.20
67820;DHT22;54618;52.018;5.576;2022-09-09T01:20:13;22.10;65.10
67820;DHT22;54618;52.018;5.576;2022-09-09T01:25:56;22.10;65.10
67820;DHT22;54618;52.018;5.576;2022-09-09T01:28:19;22.10;65.10
67820;DHT22;54618;52.018;5.576;2022-09-09T01:30:47;22.10;65.40
67820;DHT22;54618;52.018;5.576;2022-09-09T01:33:15;22.10;65.20
67820;DHT22;54618;52.018;5.576;2022-09-09T01:36:10;22.10;65.80
67820;DHT22;54618;52.018;5.576;2022-09-09T01:38:37;22.10;65.10
67820;DHT22;54618;52.018;5.576;2022-09-09T01:41:03;22.10;65.10
67820;DHT22;54618;52.018;5.576;2022-09-09T01:43:30;22.10;65.10
67820;DHT22;54618;52.018;5.576;2022-09-09T01:45:59;22.10;65.10
67820;DHT22;54618;52.018;5.576;2022-09-09T01:48:27;22.10;65.10
67820;DHT22;54618;52.018;5.576;2022-09-09T01:50:52;22.10;65.10
67820;DHT22;54618;52.018;5.576;2022-09-09T01:53:19;22.10;65.10
67820;DHT22;54618;52.018;5.576;2022-09-09T01:56:04;22.00;65.00
67820;DHT22;54618;52.018;5.576;2022-09-09T02:01:35;22.10;65.10
67820;DHT22;54618;52.018;5.576;2022-09-09T02:04:18;22.10;65.10
67820;DHT22;54618;52.018;5.576;2022-09-09T02:06:54;22.00;65.00
67820;DHT22;54618;52.018;5.576;2022-09-09T02:09:23;22.10;65.10
67820;DHT22;54618;52.018;5.576;2022-09-09T02:11:52;22.00;65.00
67820;DHT22;54618;52.018;5.576;2022-09-09T02:14:28;22.00;65.00
67820;DHT22;54618;52.018;5.576;2022-09-09T02:17:09;22.10;65.10
67820;DHT22;54618;52.018;5.576;2022-09-09T02:19:48;22.10;65.00
67820;DHT22;54618;52.018;5.576;2022-09-09T02:22:17;22.00;65.00
67820;DHT22;54618;52.018;5.576;2022-09-09T02:24:44;22.00;65.00
67820;DHT22;54618;52.018;5.576;2022-09-09T02:27:12;22.10;65.00
67820;DHT22;54618;52.018;5.576;2022-09-09T02:32:11;22.00;65.00
67820;DHT22;54618;52.018;5.576;2022-09-09T02:34:42;22.00;65.00
67820;DHT22;54618;52.018;5.576;2022-09-09T02:37:10;22.00;64.90
67820;DHT22;54618;52.018;5.576;2022-09-09T02:39:37;22.00;65.00
67820;DHT22;54618;52.018;5.576;2022-09-09T02:42:06;22.00;64.90
67820;DHT22;54618;52.018;5.576;2022-09-09T02:44:33;22.00;64.90
67820;DHT22;54618;52.018;5.576;2022-09-09T02:47:30;22.00;64.90
67820;DHT22;54618;52.018;5.576;2022-09-09T02:50:13;22.00;64.90
67820;DHT22;54618;52.018;5.576;2022-09-09T02:55:38;22.00;64.90
67820;DHT22;54618;52.018;5.576;2022-09-09T02:58:07;22.10;64.90
67820;DHT22;54618;52.018;5.576;2022-09-09T03:00:35;22.00;64.90
67820;DHT22;54618;52.018;5.576;2022-09-09T03:03:05;22.00;64.90
67820;DHT22;54618;52.018;5.576;2022-09-09T03:05:31;22.00;64.90
67820;DHT22;54618;52.018;5.576;2022-09-09T03:07:57;22.00;64.90
67820;DHT22;54618;52.018;5.576;2022-09-09T03:10:23;22.00;64.80
67820;DHT22;54618;52.018;5.576;2022-09-09T03:12:49;22.00;64.80
67820;DHT22;54618;52.018;5.576;2022-09-09T03:15:16;22.00;64.80
67820;DHT22;54618;52.018;5.576;2022-09-09T03:17:42;22.00;64.80
67820;DHT22;54618;52.018;5.576;2022-09-09T03:20:08;22.00;64.80
67820;DHT22;54618;52.018;5.576;2022-09-09T03:22:34;22.00;64.80
67820;DHT22;54618;52.018;5.576;2022-09-09T03:24:59;22.00;64.80
67820;DHT22;54618;52.018;5.576;2022-09-09T03:27:25;22.00;64.80
67820;DHT22;54618;52.018;5.576;2022-09-09T03:29:50;22.00;64.80
67820;DHT22;54618;52.018;5.576;2022-09-09T03:32:17;22.00;64.80
67820;DHT22;54618;52.018;5.576;2022-09-09T03:34:43;22.00;64.70
67820;DHT22;54618;52.018;5.576;2022-09-09T03:37:09;22.00;64.70
67820;DHT22;54618;52.018;5.576;2022-09-09T03:39:35;22.00;64.70
67820;DHT22;54618;52.018;5.576;2022-09-09T03:42:00;22.00;64.70
67820;DHT22;54618;52.018;5.576;2022-09-09T03:44:29;22.00;64.70
67820;DHT22;54618;52.018;5.576;2022-09-09T03:46:55;22.00;64.70
67820;DHT22;54618;52.018;5.576;2022-09-09T03:49:21;22.00;64.70
67820;DHT22;54618;52.018;5.576;2022-09-09T03:51:48;22.00;64.70
67820;DHT22;54618;52.018;5.576;2022-09-09T03:54:13;22.00;64.70
67820;DHT22;54618;52.018;5.576;2022-09-09T03:56:39;22.00;65.20
67820;DHT22;54618;52.018;5.576;2022-09-09T03:59:07;22.00;64.70
67820;DHT22;54618;52.018;5.576;2022-09-09T04:01:34;22.00;64.60
67820;DHT22;54618;52.018;5.576;2022-09-09T04:03:59;22.00;64.60
67820;DHT22;54618;52.018;5.576;2022-09-09T04:06:27;22.00;64.60
67820;DHT22;54618;52.018;5.576;2022-09-09T04:08:53;22.00;64.60
67820;DHT22;54618;52.018;5.576;2022-09-09T04:11:19;22.00;64.60
67820;DHT22;54618;52.018;5.576;2022-09-09T04:13:45;22.00;64.60
67820;DHT22;54618;52.018;5.576;2022-09-09T04:16:12;22.00;64.60
67820;DHT22;54618;52.018;5.576;2022-09-09T04:18:40;22.00;64.60
67820;DHT22;54618;52.018;5.576;2022-09-09T04:21:06;22.00;64.60
67820;DHT22;54618;52.018;5.576;2022-09-09T04:23:32;22.00;64.60
67820;DHT22;54618;52.018;5.576;2022-09-09T04:26:00;22.00;64.60
67820;DHT22;54618;52.018;5.576;2022-09-09T04:28:31;22.00;64.60
67820;DHT22;54618;52.018;5.576;2022-09-09T04:31:24;22.00;64.60
67820;DHT22;54618;52.018;5.576;2022-09-09T04:33:50;22.00;64.60
67820;DHT22;54618;52.018;5.576;2022-09-09T04:36:16;22.00;64.60
67820;DHT22;54618;52.018;5.576;2022-09-09T04:38:43;21.90;64.50
67820;DHT22;54618;52.018;5.576;2022-09-09T04:41:10;22.00;64.60
67820;DHT22;54618;52.018;5.576;2022-09-09T04:43:36;22.00;64.60
67820;DHT22;54618;52.018;5.576;2022-09-09T04:46:02;22.00;64.60
67820;DHT22;54618;52.018;5.576;2022-09-09T04:48:28;22.00;65.00
67820;DHT22;54618;52.018;5.576;2022-09-09T04:50:59;22.00;64.50
67820;DHT22;54618;52.018;5.576;2022-09-09T04:53:25;22.00;64.60
67820;DHT22;54618;52.018;5.576;2022-09-09T04:55:51;21.90;64.50
67820;DHT22;54618;52.018;5.576;2022-09-09T04:58:17;22.00;64.60
67820;DHT22;54618;52.018;5.576;2022-09-09T05:00:43;22.00;64.60
67820;DHT22;54618;52.018;5.576;2022-09-09T05:03:09;22.00;64.60
67820;DHT22;54618;52.018;5.576;2022-09-09T05:05:35;21.90;64.50
67820;DHT22;54618;52.018;5.576;2022-09-09T05:08:06;22.00;64.60
67820;DHT22;54618;52.018;5.576;2022-09-09T05:10:32;21.90;64.50
67820;DHT22;54618;52.018;5.576;2022-09-09T05:12:58;21.90;64.50
67820;DHT22;54618;52.018;5.576;2022-09-09T05:15:24;22.00;64.60
67820;DHT22;54618;52.018;5.576;2022-09-09T05:17:50;22.00;64.60
67820;DHT22;54618;52.018;5.576;2022-09-09T05:20:17;21.90;64.50
67820;DHT22;54618;52.018;5.576;2022-09-09T05:22:43;21.90;65.10
67820;DHT22;54618;52.018;5.576;2022-09-09T05:25:09;22.00;64.50
67820;DHT22;54618;52.018;5.576;2022-09-09T05:27:35;21.90;64.50
67820;DHT22;54618;52.018;5.576;2022-09-09T05:30:01;21.90;64.50
67820;DHT22;54618;52.018;5.576;2022-09-09T05:32:26;21.90;64.50
67820;DHT22;54618;52.018;5.576;2022-09-09T05:34:53;21.90;64.50
67820;DHT22;54618;52.018;5.576;2022-09-09T05:37:19;22.00;64.50
67820;DHT22;54618;52.018;5.576;2022-09-09T05:39:44;21.90;64.50
67820;DHT22;54618;52.018;5.576;2022-09-09T05:42:10;22.00;64.50
67820;DHT22;54618;52.018;5.576;2022-09-09T05:44:36;22.00;64.60
67820;DHT22;54618;52.018;5.576;2022-09-09T05:47:02;21.90;64.50
67820;DHT22;54618;52.018;5.576;2022-09-09T05:49:28;21.90;64.50
67820;DHT22;54618;52.018;5.576;2022-09-09T05:51:53;22.00;64.50
67820;DHT22;54618;52.018;5.576;2022-09-09T05:54:19;21.90;64.50
67820;DHT22;54618;52.018;5.576;2022-09-09T05:56:44;21.90;64.50
67820;DHT22;54618;52.018;5.576;2022-09-09T05:59:10;22.00;64.60
67820;DHT22;54618;52.018;5.576;2022-09-09T06:01:36;21.90;64.60
67820;DHT22;54618;52.018;5.576;2022-09-09T06:04:06;21.90;64.50
67820;DHT22;54618;52.018;5.576;2022-09-09T06:06:34;21.90;64.50
67820;DHT22;54618;52.018;5.576;2022-09-09T06:09:03;21.90;64.50
67820;DHT22;54618;52.018;5.576;2022-09-09T06:11:32;21.90;64.50
67820;DHT22;54618;52.018;5.576;2022-09-09T06:13:58;21.90;64.50
67820;DHT22;54618;52.018;5.576;2022-09-09T06:16:26;21.90;64.50
67820;DHT22;54618;52.018;5.576;2022-09-09T06:18:53;21.90;64.50
67820;DHT22;54618;52.018;5.576;2022-09-09T06:21:21;21.90;64.60
67820;DHT22;54618;52.018;5.576;2022-09-09T06:23:48;22.00;64.60
67820;DHT22;54618;52.018;5.576;2022-09-09T06:26:19;21.90;64.60
67820;DHT22;54618;52.018;5.576;2022-09-09T06:28:46;21.90;64.60
67820;DHT22;54618;52.018;5.576;2022-09-09T06:31:14;21.90;64.60
67820;DHT22;54618;52.018;5.576;2022-09-09T06:33:43;22.00;64.60
67820;DHT22;54618;52.018;5.576;2022-09-09T06:36:20;21.90;64.60
67820;DHT22;54618;52.018;5.576;2022-09-09T06:38:46;21.90;64.60
67820;DHT22;54618;52.018;5.576;2022-09-09T06:41:14;21.90;64.60
67820;DHT22;54618;52.018;5.576;2022-09-09T06:43:40;21.90;64.60
67820;DHT22;54618;52.018;5.576;2022-09-09T06:46:09;21.90;64.70
67820;DHT22;54618;52.018;5.576;2022-09-09T06:48:36;21.90;64.60
67820;DHT22;54618;52.018;5.576;2022-09-09T06:53:30;21.90;64.70
67820;DHT22;54618;52.018;5.576;2022-09-09T06:56:02;21.90;64.60
67820;DHT22;54618;52.018;5.576;2022-09-09T06:58:28;21.90;64.60
67820;DHT22;54618;52.018;5.576;2022-09-09T07:01:07;21.90;64.60
67820;DHT22;54618;52.018;5.576;2022-09-09T07:03:33;22.00;64.70
67820;DHT22;54618;52.018;5.576;2022-09-09T07:05:59;21.90;64.60
67820;DHT22;54618;52.018;5.576;2022-09-09T07:08:25;21.90;64.70
67820;DHT22;54618;52.018;5.576;2022-09-09T07:10:52;21.90;64.70
67820;DHT22;54618;52.018;5.576;2022-09-09T07:13:24;21.90;64.70
67820;DHT22;54618;52.018;5.576;2022-09-09T07:15:51;21.90;64.70
67820;DHT22;54618;52.018;5.576;2022-09-09T07:18:17;21.90;64.70
67820;DHT22;54618;52.018;5.576;2022-09-09T07:20:43;21.90;64.70
67820;DHT22;54618;52.018;5.576;2022-09-09T07:23:08;22.00;64.80
67820;DHT22;54618;52.018;5.576;2022-09-09T07:25:34;21.90;64.70
67820;DHT22;54618;52.018;5.576;2022-09-09T07:27:59;21.90;65.20
67820;DHT22;54618;52.018;5.576;2022-09-09T07:30:25;21.90;64.70
67820;DHT22;54618;52.018;5.576;2022-09-09T07:32:51;21.90;64.70
67820;DHT22;54618;52.018;5.576;2022-09-09T07:35:17;21.90;64.70
67820;DHT22;54618;52.018;5.576;2022-09-09T07:37:43;21.90;64.70
67820;DHT22;54618;52.018;5.576;2022-09-09T07:40:09;21.90;64.70
67820;DHT22;54618;52.018;5.576;2022-09-09T07:42:35;21.90;64.70
67820;DHT22;54618;52.018;5.576;2022-09-09T07:45:03;21.90;64.70
67820;DHT22;54618;52.018;5.576;2022-09-09T07:47:29;21.90;64.70
67820;DHT22;54618;52.018;5.576;2022-09-09T07:49:55;21.90;64.70
67820;DHT22;54618;52.018;5.576;2022-09-09T07:52:21;21.90;64.70
67820;DHT22;54618;52.018;5.576;2022-09-09T07:54:47;21.90;64.70
67820;DHT22;54618;52.018;5.576;2022-09-09T07:57:12;21.90;64.70
67820;DHT22;54618;52.018;5.576;2022-09-09T07:59:38;21.90;64.70
67820;DHT22;54618;52.018;5.576;2022-09-09T08:02:04;21.90;64.80
67820;DHT22;54618;52.018;5.576;2022-09-09T08:04:30;21.90;64.80
67820;DHT22;54618;52.018;5.576;2022-09-09T08:06:57;21.90;64.70
67820;DHT22;54618;52.018;5.576;2022-09-09T08:09:24;21.90;64.70
67820;DHT22;54618;52.018;5.576;2022-09-09T08:11:52;21.90;64.70
67820;DHT22;54618;52.018;5.576;2022-09-09T08:14:18;21.90;64.70
67820;DHT22;54618;52.018;5.576;2022-09-09T08:16:46;21.90;64.70
67820;DHT22;54618;52.018;5.576;2022-09-09T08:19:12;21.90;64.70
67820;DHT22;54618;52.018;5.576;2022-09-09T08:21:41;21.90;64.70
67820;DHT22;54618;52.018;5.576;2022-09-09T08:24:08;21.90;64.70
67820;DHT22;54618;52.018;5.576;2022-09-09T08:26:40;21.90;64.70
67820;DHT22;54618;52.018;5.576;2022-09-09T08:29:08;21.90;64.70
67820;DHT22;54618;52.018;5.576;2022-09-09T08:31:40;21.90;64.70
67820;DHT22;54618;52.018;5.576;2022-09-09T08:34:07;21.90;64.70
67820;DHT22;54618;52.018;5.576;2022-09-09T08:36:35;21.90;64.70
67820;DHT22;54618;52.018;5.576;2022-09-09T08:39:03;21.90;64.80
67820;DHT22;54618;52.018;5.576;2022-09-09T08:47:21;21.90;64.80
67820;DHT22;54618;52.018;5.576;2022-09-09T08:50:16;21.90;64.90
67820;DHT22;54618;52.018;5.576;2022-09-09T08:55:40;21.90;64.90
67820;DHT22;54618;52.018;5.576;2022-09-09T08:58:12;21.90;64.90
67820;DHT22;54618;52.018;5.576;2022-09-09T09:06:13;21.90;64.90
67820;DHT22;54618;52.018;5.576;2022-09-09T09:08:51;21.90;64.80
67820;DHT22;54618;52.018;5.576;2022-09-09T09:11:21;21.90;64.90
67820;DHT22;54618;52.018;5.576;2022-09-09T09:14:02;21.90;64.80
67820;DHT22;54618;52.018;5.576;2022-09-09T09:16:48;21.90;64.90
67820;DHT22;54618;52.018;5.576;2022-09-09T09:19:16;21.90;64.90
67820;DHT22;54618;52.018;5.576;2022-09-09T09:21:45;21.90;64.80
67820;DHT22;54618;52.018;5.576;2022-09-09T09:24:33;21.90;64.90
67820;DHT22;54618;52.018;5.576;2022-09-09T09:27:13;21.90;64.80
67820;DHT22;54618;52.018;5.576;2022-09-09T09:29:40;21.90;65.50
67820;DHT22;54618;52.018;5.576;2022-09-09T09:32:12;21.90;64.80
67820;DHT22;54618;52.018;5.576;2022-09-09T09:34:39;21.90;64.80
67820;DHT22;54618;52.018;5.576;2022-09-09T09:37:28;21.90;64.80
67820;DHT22;54618;52.018;5.576;2022-09-09T09:39:54;21.90;64.80
67820;DHT22;54618;52.018;5.576;2022-09-09T09:42:20;21.90;64.80
67820;DHT22;54618;52.018;5.576;2022-09-09T09:44:46;21.90;64.80
67820;DHT22;54618;52.018;5.576;2022-09-09T09:47:14;21.90;65.40
67820;DHT22;54618;52.018;5.576;2022-09-09T09:50:00;21.80;64.70
67820;DHT22;54618;52.018;5.576;2022-09-09T09:52:30;21.90;64.80
67820;DHT22;54618;52.018;5.576;2022-09-09T09:54:57;21.90;64.80
67820;DHT22;54618;52.018;5.576;2022-09-09T09:57:27;21.90;64.70
67820;DHT22;54618;52.018;5.576;2022-09-09T10:02:39;21.90;64.60
67820;DHT22;54618;52.018;5.576;2022-09-09T10:05:14;21.90;64.60
67820;DHT22;54618;52.018;5.576;2022-09-09T10:07:40;21.90;64.60
67820;DHT22;54618;52.018;5.576;2022-09-09T10:10:10;21.90;64.60
67820;DHT22;54618;52.018;5.576;2022-09-09T10:12:59;21.90;64.60
67820;DHT22;54618;52.018;5.576;2022-09-09T10:23:50;21.90;65.20
67820;DHT22;54618;52.018;5.576;2022-09-09T10:34:57;21.80;64.70
67820;DHT22;54618;52.018;5.576;2022-09-09T10:37:40;21.80;64.70
67820;DHT22;54618;52.018;5.576;2022-09-09T10:42:52;21.80;64.60
67820;DHT22;54618;52.018;5.576;2022-09-09T10:45:22;21.80;64.60
67820;DHT22;54618;52.018;5.576;2022-09-09T10:51:17;21.80;64.80
67820;DHT22;54618;52.018;5.576;2022-09-09T10:54:29;21.80;64.70
67820;DHT22;54618;52.018;5.576;2022-09-09T10:57:04;21.80;64.70
67820;DHT22;54618;52.018;5.576;2022-09-09T10:59:36;21.80;64.70
67820;DHT22;54618;52.018;5.576;2022-09-09T11:02:27;21.80;64.70
67820;DHT22;54618;52.018;5.576;2022-09-09T11:05:05;21.80;64.80
67820;DHT22;54618;52.018;5.576;2022-09-09T11:07:50;21.80;64.80
67820;DHT22;54618;52.018;5.576;2022-09-09T11:13:37;21.80;65.40
67820;DHT22;54618;52.018;5.576;2022-09-09T11:16:30;21.80;64.90
67820;DHT22;54618;52.018;5.576;2022-09-09T11:21:48;21.80;65.80
67820;DHT22;54618;52.018;5.576;2022-09-09T11:24:29;21.90;66.00
67820;DHT22;54618;52.018;5.576;2022-09-09T11:27:11;21.80;65.90
67820;DHT22;54618;52.018;5.576;2022-09-09T11:35:37;22.00;66.20
67820;DHT22;54618;52.018;5.576;2022-09-09T11:38:19;22.00;66.50
67820;DHT22;54618;52.018;5.576;2022-09-09T11:40:47;22.00;66.20
67820;DHT22;54618;52.018;5.576;2022-09-09T11:43:43;22.00;66.30
67820;DHT22;54618;52.018;5.576;2022-09-09T11:46:10;22.10;66.60
67820;DHT22;54618;52.018;5.576;2022-09-09T11:48:42;22.00;66.60
67820;DHT22;54618;52.018;5.576;2022-09-09T11:56:42;22.10;66.60
67820;DHT22;54618;52.018;5.576;2022-09-09T11:59:28;22.10;66.60
67820;DHT22;54618;52.018;5.576;2022-09-09T12:02:13;22.10;66.60
67820;DHT22;54618;52.018;5.576;2022-09-09T12:07:38;22.10;66.60
67820;DHT22;54618;52.018;5.576;2022-09-09T12:10:22;22.10;66.50
67820;DHT22;54618;52.018;5.576;2022-09-09T12:12:48;22.10;66.50
67820;DHT22;54618;52.018;5.576;2022-09-09T12:15:23;22.10;66.40
67820;DHT22;54618;52.018;5.576;2022-09-09T12:17:52;22.10;66.40
67820;DHT22;54618;52.018;5.576;2022-09-09T12:20:22;22.10;66.40
67820;DHT22;54618;52.018;5.576;2022-09-09T12:23:12;22.20;66.40
67820;DHT22;54618;52.018;5.576;2022-09-09T12:33:45;22.20;66.30
67820;DHT22;54618;52.018;5.576;2022-09-09T12:36:16;22.20;66.30
67820;DHT22;54618;52.018;5.576;2022-09-09T12:38:43;22.20;66.30
67820;DHT22;54618;52.018;5.576;2022-09-09T12:41:23;22.20;66.30
67820;DHT22;54618;52.018;5.576;2022-09-09T12:43:50;22.20;66.30
67820;DHT22;54618;52.018;5.576;2022-09-09T12:46:33;22.20;66.20
67820;DHT22;54618;52.018;5.576;2022-09-09T12:49:02;22.20;66.20
67820;DHT22;54618;52.018;5.576;2022-09-09T12:51:30;22.20;66.20
67820;DHT22;54618;52.018;5.576;2022-09-09T12:54:00;22.20;66.20
67820;DHT22;54618;52.018;5.576;2022-09-09T12:56:31;22.20;66.30
67820;DHT22;54618;52.018;5.576;2022-09-09T12:58:58;22.20;66.30
67820;DHT22;54618;52.018;5.576;2022-09-09T13:01:33;22.20;66.20
67820;DHT22;54618;52.018;5.576;2022-09-09T13:03:59;22.20;66.30
67820;DHT22;54618;52.018;5.576;2022-09-09T13:06:30;22.20;66.20
67820;DHT22;54618;52.018;5.576;2022-09-09T13:08:59;22.20;66.30
67820;DHT22;54618;52.018;5.576;2022-09-09T13:13:53;22.20;66.20
67820;DHT22;54618;52.018;5.576;2022-09-09T13:16:30;22.20;66.20
67820;DHT22;54618;52.018;5.576;2022-09-09T13:18:58;22.20;66.20
67820;DHT22;54618;52.018;5.576;2022-09-09T13:21:36;22.20;66.20
67820;DHT22;54618;52.018;5.576;2022-09-09T13:24:04;22.20;66.20
67820;DHT22;54618;52.018;5.576;2022-09-09T13:26:33;22.20;66.20
67820;DHT22;54618;52.018;5.576;2022-09-09T13:29:19;22.20;66.20
67820;DHT22;54618;52.018;5.576;2022-09-09T13:31:45;22.20;66.30
67820;DHT22;54618;52.018;5.576;2022-09-09T13:34:28;22.20;66.20
67820;DHT22;54618;52.018;5.576;2022-09-09T13:36:59;22.20;66.30
67820;DHT22;54618;52.018;5.576;2022-09-09T13:39:27;22.10;66.20
67820;DHT22;54618;52.018;5.576;2022-09-09T13:41:53;22.10;66.30
67820;DHT22;54618;52.018;5.576;2022-09-09T13:44:25;22.10;66.30
67820;DHT22;54618;52.018;5.576;2022-09-09T13:47:18;22.10;66.30
67820;DHT22;54618;52.018;5.576;2022-09-09T13:49:46;22.20;66.40
67820;DHT22;54618;52.018;5.576;2022-09-09T13:52:13;22.10;66.30
67820;DHT22;54618;52.018;5.576;2022-09-09T13:54:41;22.10;66.30
67820;DHT22;54618;52.018;5.576;2022-09-09T13:57:17;22.10;66.30
67820;DHT22;54618;52.018;5.576;2022-09-09T13:59:46;22.10;66.40
67820;DHT22;54618;52.018;5.576;2022-09-09T14:02:13;22.10;66.40
67820;DHT22;54618;52.018;5.576;2022-09-09T14:04:38;22.10;66.40
67820;DHT22;54618;52.018;5.576;2022-09-09T14:07:10;22.10;66.40
67820;DHT22;54618;52.018;5.576;2022-09-09T14:09:36;22.10;66.40
67820;DHT22;54618;52.018;5.576;2022-09-09T14:12:02;22.10;66.40
67820;DHT22;54618;52.018;5.576;2022-09-09T14:14:28;22.10;66.40
67820;DHT22;54618;52.018;5.576;2022-09-09T14:16:53;22.10;66.40
67820;DHT22;54618;52.018;5.576;2022-09-09T14:19:19;22.10;66.40
67820;DHT22;54618;52.018;5.576;2022-09-09T14:21:46;22.10;66.50
67820;DHT22;54618;52.018;5.576;2022-09-09T14:24:11;22.10;66.50
67820;DHT22;54618;52.018;5.576;2022-09-09T14:26:37;22.10;66.50
67820;DHT22;54618;52.018;5.576;2022-09-09T14:29:03;22.10;66.50
67820;DHT22;54618;52.018;5.576;2022-09-09T14:31:29;22.10;66.50
67820;DHT22;54618;52.018;5.576;2022-09-09T14:33:54;22.10;67.10
67820;DHT22;54618;52.018;5.576;2022-09-09T14:36:20;22.10;66.60
67820;DHT22;54618;52.018;5.576;2022-09-09T14:38:46;22.10;66.60
67820;DHT22;54618;52.018;5.576;2022-09-09T14:41:14;22.00;66.60
67820;DHT22;54618;52.018;5.576;2022-09-09T14:43:42;22.10;66.70
67820;DHT22;54618;52.018;5.576;2022-09-09T14:46:10;22.00;66.70
67820;DHT22;54618;52.018;5.576;2022-09-09T14:48:36;22.00;66.70
67820;DHT22;54618;52.018;5.576;2022-09-09T14:51:13;22.10;66.70
67820;DHT22;54618;52.018;5.576;2022-09-09T14:53:41;22.10;66.80
67820;DHT22;54618;52.018;5.576;2022-09-09T14:56:18;22.10;66.80
67820;DHT22;54618;52.018;5.576;2022-09-09T14:58:45;22.00;66.70
67820;DHT22;54618;52.018;5.576;2022-09-09T15:01:14;22.00;66.80
67820;DHT22;54618;52.018;5.576;2022-09-09T15:03:42;22.00;66.80
67820;DHT22;54618;52.018;5.576;2022-09-09T15:06:13;22.10;66.80
67820;DHT22;54618;52.018;5.576;2022-09-09T15:08:44;22.00;66.70
67820;DHT22;54618;52.018;5.576;2022-09-09T15:11:10;22.00;66.70
67820;DHT22;54618;52.018;5.576;2022-09-09T15:13:37;22.00;66.80
67820;DHT22;54618;52.018;5.576;2022-09-09T15:16:05;22.00;66.70
67820;DHT22;54618;52.018;5.576;2022-09-09T15:18:31;22.10;66.80
67820;DHT22;54618;52.018;5.576;2022-09-09T15:20:58;22.00;66.70
67820;DHT22;54618;52.018;5.576;2022-09-09T15:23:25;22.00;66.70
67820;DHT22;54618;52.018;5.576;2022-09-09T15:25:52;22.00;66.70
67820;DHT22;54618;52.018;5.576;2022-09-09T15:28:18;22.00;66.70
67820;DHT22;54618;52.018;5.576;2022-09-09T15:30:46;22.10;66.80
67820;DHT22;54618;52.018;5.576;2022-09-09T15:33:12;22.00;66.70
67820;DHT22;54618;52.018;5.576;2022-09-09T15:35:37;22.00;66.70
67820;DHT22;54618;52.018;5.576;2022-09-09T15:38:03;22.10;66.80
67820;DHT22;54618;52.018;5.576;2022-09-09T15:40:31;22.10;66.80
67820;DHT22;54618;52.018;5.576;2022-09-09T15:42:58;22.00;66.70
67820;DHT22;54618;52.018;5.576;2022-09-09T15:45:24;22.10;66.70
67820;DHT22;54618;52.018;5.576;2022-09-09T15:47:49;22.10;66.80
67820;DHT22;54618;52.018;5.576;2022-09-09T15:50:16;22.10;66.70
67820;DHT22;54618;52.018;5.576;2022-09-09T15:52:42;22.10;66.80
67820;DHT22;54618;52.018;5.576;2022-09-09T15:55:08;22.00;66.80
67820;DHT22;54618;52.018;5.576;2022-09-09T15:57:34;22.00;66.70
67820;DHT22;54618;52.018;5.576;2022-09-09T16:00:01;22.00;66.70
67820;DHT22;54618;52.018;5.576;2022-09-09T16:02:26;22.00;66.80
67820;DHT22;54618;52.018;5.576;2022-09-09T16:04:52;22.00;66.70
67820;DHT22;54618;52.018;5.576;2022-09-09T16:07:17;22.00;66.70
67820;DHT22;54618;52.018;5.576;2022-09-09T16:09:43;22.00;66.70
67820;DHT22;54618;52.018;5.576;2022-09-09T16:12:09;22.00;66.70
67820;DHT22;54618;52.018;5.576;2022-09-09T16:14:38;22.00;66.80
67820;DHT22;54618;52.018;5.576;2022-09-09T16:17:04;22.00;66.80
67820;DHT22;54618;52.018;5.576;2022-09-09T16:19:31;22.00;66.70
67820;DHT22;54618;52.018;5.576;2022-09-09T16:21:56;22.00;66.60
67820;DHT22;54618;52.018;5.576;2022-09-09T16:24:22;22.10;66.60
67820;DHT22;54618;52.018;5.576;2022-09-09T16:26:50;22.10;66.60
67820;DHT22;54618;52.018;5.576;2022-09-09T16:29:18;22.00;66.50
67820;DHT22;54618;52.018;5.576;2022-09-09T16:31:45;22.10;66.50
67820;DHT22;54618;52.018;5.576;2022-09-09T16:34:12;22.00;66.40
67820;DHT22;54618;52.018;5.576;2022-09-09T16:36:39;22.00;66.40
67820;DHT22;54618;52.018;5.576;2022-09-09T16:39:08;22.00;66.40
67820;DHT22;54618;52.018;5.576;2022-09-09T16:41:34;22.00;66.40
67820;DHT22;54618;52.018;5.576;2022-09-09T16:44:05;22.00;66.40
67820;DHT22;54618;52.018;5.576;2022-09-09T16:46:32;22.00;66.30
67820;DHT22;54618;52.018;5.576;2022-09-09T16:49:00;22.00;66.40
67820;DHT22;54618;52.018;5.576;2022-09-09T16:51:43;22.00;66.30
67820;DHT22;54618;52.018;5.576;2022-09-09T16:54:10;22.00;66.30
67820;DHT22;54618;52.018;5.576;2022-09-09T16:56:38;22.00;66.30
67820;DHT22;54618;52.018;5.576;2022-09-09T16:59:11;22.00;66.30
67820;DHT22;54618;52.018;5.576;2022-09-09T17:01:38;22.00;66.30
67820;DHT22;54618;52.018;5.576;2022-09-09T17:04:08;22.00;66.30
67820;DHT22;54618;52.018;5.576;2022-09-09T17:06:34;22.00;66.30
67820;DHT22;54618;52.018;5.576;2022-09-09T17:09:07;22.00;66.30
67820;DHT22;54618;52.018;5.576;2022-09-09T17:11:33;22.00;66.30
67820;DHT22;54618;52.018;5.576;2022-09-09T17:13:59;22.00;66.30
67820;DHT22;54618;52.018;5.576;2022-09-09T17:16:28;22.00;66.20
67820;DHT22;54618;52.018;5.576;2022-09-09T17:18:54;22.00;66.30
67820;DHT22;54618;52.018;5.576;2022-09-09T17:21:23;22.00;66.20
67820;DHT22;54618;52.018;5.576;2022-09-09T17:23:50;22.00;66.30
67820;DHT22;54618;52.018;5.576;2022-09-09T17:26:18;22.00;66.20
67820;DHT22;54618;52.018;5.576;2022-09-09T17:28:45;22.00;66.30
67820;DHT22;54618;52.018;5.576;2022-09-09T17:31:16;22.00;66.20